Accueil
METAR-TAF:

METAR-TAF

Aéroports :

Gilze-Rijen, Pays-Bas

latitude: 51-34N, longitude: 004-56E, altitude: 15 m

Observation

Le bulletin a été fait il y a 22 minutes, à 16:25 UTC
Vent 7 kt de est, variant entre est/nord-est et sud-est
Température 23°C
Humidité 50%
Pression 1018 hPa
Visibilité 10 km ou plus
Ciel couvert à une hauteur de 21000 ft

METAR: EHGR 221625Z AUTO 10007KT 070V130 9999 OVC210 23/12 Q1018 BLU

Heure: 18:47 (16:47 UTC)

Prévision

Le bulletin a été fait il y a 8 heures et 19 minutes, à 08:28 UTC
Prévision valable du 22 à 09 UTC au 22 à 21 UTC
Vent 6 kt de est
Visibilité 10 km ou plus
pas de nuages en-dessous de 1500 mètres et pas de cumulonimbus.

TAF: EHGR 220828Z 2209/2221 10006KT CAVOK

Observations et prévisions météorologiques de plus de 4000 aéroports (messages METAR et TAF).

Les stations disponibles sont représentées par des disques jaunes et rouges sur la carte.

Passer la souris dessus pour voir le nom de la station.

Cliquer dessus pour voir les observations et prévisions météorologiques.

Pour changer de carte: cliquez sur les boutons verts avec une croix noire pour zoomer, sur le bouton vert avec un tiret pour effectuer un zoom arrière, ou sur les flèches vertes pour les cartes adjacentes.


METAR-TAF: